Weather at Cistern Field

Public forecast

Using degrees Celsius for public forecast. Weather courtesy of forecast.io.

Closest aviation weather report (METAR) to Cistern Field

Closest report is Lynden Pindling International Airport, 49.9 nm (92.4 km) SSE. Retrieved 2020/09/20 10:00 UTC (59 minutes ago):

MYNN 201000Z VRB01KT 9999 FEW025 25/24 A2990

Closest aviation forecast (TAF) to Cistern Field

Forecast is more than 6 hours old.

Closest forecast is Lynden Pindling International Airport, 49.9 nm (92.4 km) SSE. Retrieved 2020-09-20 00:24 UTC (11 hours ago):

TAF MYNN 192300Z 2000/2024 VRB05KT 9999 FEW020 SCT220